Time;durP1;ratioP1;P1;durP2;ratioP2;P2;SDS_P1;SDS_P2;PMS_P1;PMS_P2;Temp;Humidity;BMP_temperature;BMP_pressure;BME280_temperature;BME280_humidity;BME280_pressure;Samples;Min_cycle;Max_cycle;Signal;HPM_P1;HPM_P2
2022/04/14 00:01:03;;;;;;;;;;;18.40;56.10;;;;;;4995694;28;895;-69
2022/04/14 00:03:28;;;;;;;;;;;18.50;56.20;;;;;;4978670;28;1010;-69
2022/04/14 00:05:54;;;;;;;;;;;18.50;56.20;;;;;;4995347;28;692;-68
2022/04/14 00:08:20;;;;;;;;;;;18.50;56.20;;;;;;4995728;28;1170;-68
2022/04/14 00:10:45;;;;;;;;;;;18.50;56.20;;;;;;4994871;28;1961;-68
2022/04/14 00:13:11;;;;;;;;;;;18.50;56.20;;;;;;4962436;28;1574;-68
2022/04/14 00:15:36;;;;;;;;;;;18.50;56.30;;;;;;4995785;28;1416;-68
2022/04/14 00:18:02;;;;;;;;;;;18.50;56.30;;;;;;4996169;28;1475;-69
2022/04/14 00:20:28;;;;;;;;;;;18.40;56.30;;;;;;4979467;28;1380;-69
2022/04/14 00:22:54;;;;;;;;;;;18.40;56.30;;;;;;4979250;28;1367;-69
2022/04/14 00:25:19;;;;;;;;;;;18.50;56.40;;;;;;4996738;28;1226;-69
2022/04/14 00:27:45;;;;;;;;;;;18.40;56.30;;;;;;4977603;28;1519;-69
2022/04/14 00:30:12;;;;;;;;;;;18.50;56.40;;;;;;4977969;28;1966;-69
2022/04/14 00:32:38;;;;;;;;;;;18.40;56.40;;;;;;4978205;28;811;-68
2022/04/14 00:35:03;;;;;;;;;;;18.40;56.40;;;;;;4977591;28;777;-68
2022/04/14 00:37:28;;;;;;;;;;;18.40;56.40;;;;;;4976986;28;1456;-68
2022/04/14 00:39:54;;;;;;;;;;;18.40;56.40;;;;;;4977733;28;1541;-68
2022/04/14 00:42:19;;;;;;;;;;;18.40;56.40;;;;;;4995063;28;1526;-68
2022/04/14 00:44:45;;;;;;;;;;;18.40;56.40;;;;;;4977370;28;803;-68
2022/04/14 00:47:12;;;;;;;;;;;18.40;56.50;;;;;;4994724;28;1217;-68
2022/04/14 00:49:37;;;;;;;;;;;18.40;56.50;;;;;;4977700;28;1958;-68
2022/04/14 00:52:03;;;;;;;;;;;18.40;56.50;;;;;;4977577;28;794;-68
2022/04/14 00:54:30;;;;;;;;;;;18.40;56.50;;;;;;4977529;28;1053;-68
2022/04/14 00:56:59;;;;;;;;;;;18.40;56.50;;;;;;4994549;28;1296;-68
2022/04/14 00:59:25;;;;;;;;;;;18.40;56.60;;;;;;4977597;28;959;-69
2022/04/14 01:01:50;;;;;;;;;;;18.40;56.60;;;;;;4977474;28;860;-69
2022/04/14 01:04:16;;;;;;;;;;;18.40;56.60;;;;;;4977199;28;835;-69
2022/04/14 01:09:20;;;;;;;;;;;18.40;56.60;;;;;;5032275;28;2200;-67
2022/04/14 01:11:46;;;;;;;;;;;18.40;56.60;;;;;;5044273;28;1898;-66
2022/04/14 01:14:25;;;;;;;;;;;18.40;56.60;;;;;;5052626;28;877;-66
2022/04/14 01:16:50;;;;;;;;;;;18.40;56.60;;;;;;5050611;28;1223;-66
2022/04/14 01:19:16;;;;;;;;;;;18.40;56.60;;;;;;5032434;28;800;-66
2022/04/14 01:21:41;;;;;;;;;;;18.40;56.60;;;;;;5033430;28;715;-67
2022/04/14 01:24:09;;;;;;;;;;;18.40;56.60;;;;;;5033399;28;799;-67
2022/04/14 01:26:36;;;;;;;;;;;18.40;56.70;;;;;;5018992;28;1225;-67
2022/04/14 01:29:03;;;;;;;;;;;18.40;56.60;;;;;;5026477;28;1286;-66
2022/04/14 01:31:28;;;;;;;;;;;18.40;56.70;;;;;;5031923;28;1902;-67
2022/04/14 01:33:53;;;;;;;;;;;18.40;56.70;;;;;;5033752;28;725;-67
2022/04/14 01:36:19;;;;;;;;;;;18.40;56.70;;;;;;5029960;28;1087;-66
2022/04/14 01:38:45;;;;;;;;;;;18.40;56.70;;;;;;5013316;28;1262;-66
2022/04/14 01:41:10;;;;;;;;;;;18.40;56.70;;;;;;5013502;28;855;-67
2022/04/14 01:43:36;;;;;;;;;;;18.40;56.70;;;;;;5013640;28;733;-66
2022/04/14 01:46:03;;;;;;;;;;;18.40;56.70;;;;;;5012991;28;855;-67
2022/04/14 01:48:28;;;;;;;;;;;18.40;56.70;;;;;;5013529;28;1198;-67
2022/04/14 01:50:54;;;;;;;;;;;18.30;56.70;;;;;;5013216;28;1946;-67
2022/04/14 01:53:19;;;;;;;;;;;18.40;56.70;;;;;;5012482;28;854;-67
2022/04/14 01:55:45;;;;;;;;;;;18.30;56.70;;;;;;5011516;28;994;-65
2022/04/14 01:58:10;;;;;;;;;;;18.30;56.70;;;;;;5012744;28;1196;-64
2022/04/14 02:00:35;;;;;;;;;;;18.30;56.70;;;;;;5013058;28;1017;-66
2022/04/14 02:03:01;;;;;;;;;;;18.30;56.70;;;;;;5013412;28;710;-66
2022/04/14 02:05:26;;;;;;;;;;;18.30;56.80;;;;;;5013130;28;794;-66
2022/04/14 02:07:52;;;;;;;;;;;18.30;56.80;;;;;;5012031;28;1223;-68
2022/04/14 02:10:17;;;;;;;;;;;18.30;56.80;;;;;;5012663;28;1969;-66
2022/04/14 02:12:45;;;;;;;;;;;18.30;56.80;;;;;;5013574;28;835;-67
2022/04/14 02:15:10;;;;;;;;;;;18.30;56.80;;;;;;5013235;28;930;-66
2022/04/14 02:17:36;;;;;;;;;;;18.30;56.80;;;;;;5012858;28;1282;-66
2022/04/14 02:20:01;;;;;;;;;;;18.30;56.80;;;;;;5013236;28;898;-66
2022/04/14 02:22:27;;;;;;;;;;;18.30;56.80;;;;;;5011884;28;888;-66
2022/04/14 02:24:52;;;;;;;;;;;18.30;56.80;;;;;;5013087;28;1131;-66
2022/04/14 02:27:18;;;;;;;;;;;18.30;56.80;;;;;;5012813;28;1227;-67
2022/04/14 02:29:46;;;;;;;;;;;18.30;56.90;;;;;;5032358;28;1953;-67
2022/04/14 02:32:11;;;;;;;;;;;18.30;56.90;;;;;;5032808;28;926;-67
2022/04/14 02:34:37;;;;;;;;;;;18.30;56.90;;;;;;5031523;28;1512;-68
2022/04/14 02:37:02;;;;;;;;;;;18.30;56.90;;;;;;5021927;28;1345;-68
2022/04/14 02:39:28;;;;;;;;;;;18.30;56.90;;;;;;5013037;28;820;-67
2022/04/14 02:41:53;;;;;;;;;;;18.30;56.90;;;;;;5011679;28;891;-67
2022/04/14 02:44:18;;;;;;;;;;;18.30;57.00;;;;;;5012860;28;804;-67
2022/04/14 02:46:44;;;;;;;;;;;18.30;57.00;;;;;;4995214;28;1208;-67
2022/04/14 02:49:09;;;;;;;;;;;18.30;57.00;;;;;;5011738;28;896;-66
2022/04/14 02:51:35;;;;;;;;;;;18.30;57.00;;;;;;5011640;28;2266;-67
2022/04/14 02:54:00;;;;;;;;;;;18.30;57.00;;;;;;5012961;28;862;-67
2022/04/14 02:56:26;;;;;;;;;;;18.30;57.00;;;;;;5012650;28;891;-67
2022/04/14 02:58:51;;;;;;;;;;;18.30;57.00;;;;;;5012806;28;1271;-67
2022/04/14 03:01:16;;;;;;;;;;;18.30;57.00;;;;;;5012774;28;886;-67
2022/04/14 03:03:42;;;;;;;;;;;18.30;57.00;;;;;;5012945;28;886;-66
2022/04/14 03:06:07;;;;;;;;;;;18.30;57.00;;;;;;5012507;28;851;-67
2022/04/14 03:08:33;;;;;;;;;;;18.30;57.10;;;;;;5014569;28;1231;-67
2022/04/14 03:10:58;;;;;;;;;;;18.30;57.10;;;;;;5016432;28;1923;-67
2022/04/14 03:13:24;;;;;;;;;;;18.30;57.10;;;;;;5015058;28;784;-66
2022/04/14 03:15:51;;;;;;;;;;;18.30;57.10;;;;;;5016054;28;966;-67
2022/04/14 03:18:16;;;;;;;;;;;18.30;57.10;;;;;;5015065;28;1196;-66
2022/04/14 03:20:42;;;;;;;;;;;18.30;57.10;;;;;;5016194;28;1050;-67
2022/04/14 03:23:07;;;;;;;;;;;18.30;57.10;;;;;;5016246;28;808;-66
2022/04/14 03:25:32;;;;;;;;;;;18.30;57.10;;;;;;5014615;28;1144;-67
2022/04/14 03:27:58;;;;;;;;;;;18.30;57.10;;;;;;5021175;28;1219;-66
2022/04/14 03:30:23;;;;;;;;;;;18.30;57.10;;;;;;5035695;28;1902;-66
2022/04/14 03:32:49;;;;;;;;;;;18.30;57.10;;;;;;5035953;28;1002;-66
2022/04/14 03:35:14;;;;;;;;;;;18.30;57.10;;;;;;5035680;28;858;-66
2022/04/14 03:37:40;;;;;;;;;;;18.30;57.20;;;;;;5021038;28;1271;-66
2022/04/14 03:40:06;;;;;;;;;;;18.30;57.20;;;;;;5015911;28;998;-65
2022/04/14 03:42:31;;;;;;;;;;;18.30;57.20;;;;;;5015617;28;844;-66
2022/04/14 03:44:58;;;;;;;;;;;18.30;57.20;;;;;;5015284;28;1251;-66
2022/04/14 03:47:24;;;;;;;;;;;18.30;57.20;;;;;;5014374;28;1213;-66
2022/04/14 03:49:49;;;;;;;;;;;18.30;57.20;;;;;;5015621;28;1965;-66
2022/04/14 03:52:15;;;;;;;;;;;18.30;57.20;;;;;;5014688;28;867;-66
2022/04/14 03:54:40;;;;;;;;;;;18.30;57.20;;;;;;5014500;28;947;-65
2022/04/14 03:57:06;;;;;;;;;;;18.30;57.20;;;;;;5015129;28;1283;-66
2022/04/14 03:59:31;;;;;;;;;;;18.30;57.20;;;;;;5014457;28;852;-65
2022/04/14 04:01:57;;;;;;;;;;;18.30;57.20;;;;;;5015463;28;772;-65
2022/04/14 04:04:23;;;;;;;;;;;18.30;57.30;;;;;;5015470;28;824;-65
2022/04/14 04:06:48;;;;;;;;;;;18.30;57.30;;;;;;5013842;28;1217;-68
2022/04/14 04:09:13;;;;;;;;;;;18.30;57.30;;;;;;5015629;28;766;-68
2022/04/14 04:11:39;;;;;;;;;;;18.30;57.30;;;;;;5015052;28;1910;-68
2022/04/14 04:14:04;;;;;;;;;;;18.30;57.30;;;;;;5014461;28;729;-68
2022/04/14 04:16:30;;;;;;;;;;;18.30;57.30;;;;;;5014883;28;891;-68
2022/04/14 04:18:55;;;;;;;;;;;18.20;57.30;;;;;;5014803;28;1181;-68
2022/04/14 04:21:21;;;;;;;;;;;18.30;57.30;;;;;;5014588;28;871;-68
2022/04/14 04:23:46;;;;;;;;;;;18.20;57.30;;;;;;5015022;28;883;-68
2022/04/14 04:26:11;;;;;;;;;;;18.30;57.30;;;;;;5013393;28;1139;-66
2022/04/14 04:28:37;;;;;;;;;;;18.30;57.30;;;;;;5025434;28;1197;-66
2022/04/14 04:31:02;;;;;;;;;;;18.20;57.30;;;;;;5033569;28;1968;-66
2022/04/14 04:33:28;;;;;;;;;;;18.20;57.30;;;;;;5034634;28;1064;-66
2022/04/14 04:35:53;;;;;;;;;;;18.20;57.30;;;;;;5033250;28;862;-66
2022/04/14 04:38:19;;;;;;;;;;;18.20;57.40;;;;;;5015289;28;1293;-66
2022/04/14 04:40:44;;;;;;;;;;;18.20;57.40;;;;;;5013718;28;902;-66
2022/04/14 04:43:10;;;;;;;;;;;18.20;57.40;;;;;;5014990;28;1014;-66
2022/04/14 04:45:35;;;;;;;;;;;18.30;57.40;;;;;;4996953;28;1019;-67
2022/04/14 04:48:02;;;;;;;;;;;18.20;57.40;;;;;;5013317;28;1282;-66
2022/04/14 04:50:27;;;;;;;;;;;18.30;57.50;;;;;;5014679;28;1968;-66
2022/04/14 04:52:53;;;;;;;;;;;18.20;57.40;;;;;;5014940;28;985;-67
2022/04/14 04:55:18;;;;;;;;;;;18.20;57.40;;;;;;5014567;28;945;-66
2022/04/14 04:57:44;;;;;;;;;;;18.20;57.40;;;;;;5013921;28;1268;-66
2022/04/14 05:00:11;;;;;;;;;;;18.20;57.40;;;;;;5014436;28;962;-66
2022/04/14 05:02:36;;;;;;;;;;;18.20;57.40;;;;;;5014351;28;846;-66
2022/04/14 05:05:01;;;;;;;;;;;18.30;57.50;;;;;;5014373;28;895;-66
2022/04/14 05:07:27;;;;;;;;;;;18.20;57.50;;;;;;5013724;28;1226;-66
2022/04/14 05:09:52;;;;;;;;;;;18.20;57.40;;;;;;5014274;28;1958;-65
2022/04/14 05:12:18;;;;;;;;;;;18.20;57.40;;;;;;5013959;28;895;-65
2022/04/14 05:14:43;;;;;;;;;;;18.30;57.40;;;;;;5014194;28;943;-65
2022/04/14 05:17:08;;;;;;;;;;;18.30;57.30;;;;;;5013986;28;1273;-65
2022/04/14 05:19:34;;;;;;;;;;;18.30;57.30;;;;;;5013964;28;687;-66
2022/04/14 05:22:01;;;;;;;;;;;18.30;57.30;;;;;;5014048;28;924;-66
2022/04/14 05:24:28;;;;;;;;;;;18.30;57.20;;;;;;5012879;28;914;-66
2022/04/14 05:26:54;;;;;;;;;;;18.40;57.20;;;;;;5013320;28;1358;-66
2022/04/14 05:29:19;;;;;;;;;;;18.40;57.10;;;;;;5030243;28;1151;-66
2022/04/14 05:31:44;;;;;;;;;;;18.40;57.00;;;;;;5033269;28;1909;-65
2022/04/14 05:34:10;;;;;;;;;;;18.50;57.00;;;;;;5033603;28;782;-66
2022/04/14 05:36:35;;;;;;;;;;;18.50;57.00;;;;;;5027704;28;1173;-67
2022/04/14 05:39:01;;;;;;;;;;;18.50;56.90;;;;;;5013667;28;1178;-67
2022/04/14 05:41:26;;;;;;;;;;;18.50;56.80;;;;;;5013449;28;711;-66
2022/04/14 05:43:52;;;;;;;;;;;18.50;56.80;;;;;;5013743;28;777;-66
2022/04/14 05:46:17;;;;;;;;;;;18.50;56.70;;;;;;5013603;28;917;-66
2022/04/14 05:48:42;;;;;;;;;;;18.60;56.70;;;;;;5013537;28;1274;-66
2022/04/14 05:51:08;;;;;;;;;;;18.60;56.70;;;;;;5013501;28;1902;-66
2022/04/14 05:53:34;;;;;;;;;;;18.60;56.70;;;;;;5013666;28;808;-66
2022/04/14 05:55:59;;;;;;;;;;;18.60;56.70;;;;;;5012642;28;2198;-67
2022/04/14 05:58:25;;;;;;;;;;;18.60;56.60;;;;;;5004499;28;1875;-67
2022/04/14 06:00:50;;;;;;;;;;;18.60;56.60;;;;;;5013273;28;1250;-66
2022/04/14 06:03:16;;;;;;;;;;;18.60;56.50;;;;;;5012001;28;1163;-66
2022/04/14 06:05:41;;;;;;;;;;;18.60;56.50;;;;;;5013111;28;835;-66
2022/04/14 06:08:07;;;;;;;;;;;18.60;56.50;;;;;;5013124;28;1190;-66
2022/04/14 06:10:34;;;;;;;;;;;18.60;56.50;;;;;;5013028;28;1954;-66
2022/04/14 06:12:59;;;;;;;;;;;18.60;56.40;;;;;;5013410;28;954;-66
2022/04/14 06:15:29;;;;;;;;;;;18.70;56.50;;;;;;5000656;28;2889;-67
2022/04/14 06:17:54;;;;;;;;;;;18.70;56.40;;;;;;5013059;28;1280;-65
2022/04/14 06:20:20;;;;;;;;;;;18.70;56.40;;;;;;5013107;28;1206;-67
2022/04/14 06:22:45;;;;;;;;;;;18.70;56.40;;;;;;5011812;28;835;-66
2022/04/14 06:25:14;;;;;;;;;;;18.70;56.40;;;;;;5019793;28;1218;-66
2022/04/14 06:27:40;;;;;;;;;;;18.70;56.40;;;;;;5015593;28;1293;-66
2022/04/14 06:30:06;;;;;;;;;;;18.70;56.30;;;;;;5031661;28;1910;-66
2022/04/14 06:32:31;;;;;;;;;;;18.70;56.30;;;;;;5032414;28;833;-64
2022/04/14 06:34:56;;;;;;;;;;;18.70;56.30;;;;;;5016318;28;1389;-68
2022/04/14 06:37:22;;;;;;;;;;;18.80;56.30;;;;;;5024406;28;1346;-69
2022/04/14 06:39:47;;;;;;;;;;;18.70;56.30;;;;;;5032521;28;942;-73
2022/04/14 06:42:13;;;;;;;;;;;18.70;56.20;;;;;;5032678;28;899;-73
2022/04/14 06:44:38;;;;;;;;;;;18.80;56.30;;;;;;5036495;28;979;-72
2022/04/14 06:47:04;;;;;;;;;;;18.80;56.20;;;;;;5036311;28;1196;-72
2022/04/14 06:49:30;;;;;;;;;;;18.80;56.80;;;;;;5036587;28;1029;-71
2022/04/14 06:51:55;;;;;;;;;;;18.80;56.20;;;;;;5036493;28;1894;-72
2022/04/14 06:54:20;;;;;;;;;;;18.80;56.20;;;;;;5035162;28;905;-68
2022/04/14 06:56:46;;;;;;;;;;;18.80;56.20;;;;;;5036078;28;1294;-68
2022/04/14 06:59:11;;;;;;;;;;;18.80;56.20;;;;;;5036634;28;704;-67
2022/04/14 07:01:37;;;;;;;;;;;18.80;56.20;;;;;;5036504;28;843;-67
2022/04/14 07:04:02;;;;;;;;;;;18.80;56.10;;;;;;5036385;28;834;-67
2022/04/14 07:06:27;;;;;;;;;;;18.90;56.70;;;;;;5036254;28;1045;-67
2022/04/14 07:08:53;;;;;;;;;;;18.90;56.00;;;;;;5034273;23;2224;-68
2022/04/14 07:11:18;;;;;;;;;;;19.00;56.00;;;;;;5014549;28;1977;-68
2022/04/14 07:13:44;;;;;;;;;;;19.00;55.80;;;;;;5016200;28;1100;-68
2022/04/14 07:16:09;;;;;;;;;;;19.10;55.90;;;;;;5016138;28;764;-68
2022/04/14 07:18:35;;;;;;;;;;;19.20;55.70;;;;;;5016153;28;1160;-69
2022/04/14 07:21:00;;;;;;;;;;;19.30;55.50;;;;;;5006801;28;1163;-68
2022/04/14 07:23:27;;;;;;;;;;;19.30;55.30;;;;;;5013281;28;1111;-68
2022/04/14 07:25:53;;;;;;;;;;;19.40;55.20;;;;;;5014506;28;1138;-68
2022/04/14 07:28:18;;;;;;;;;;;19.50;55.10;;;;;;5015719;28;1360;-69
2022/04/14 07:30:44;;;;;;;;;;;19.60;54.90;;;;;;5016050;28;1894;-69
2022/04/14 07:33:09;;;;;;;;;;;19.70;54.80;;;;;;5016018;28;1041;-70
2022/04/14 07:35:35;;;;;;;;;;;19.70;54.60;;;;;;5015949;28;796;-69
2022/04/14 07:38:00;;;;;;;;;;;19.80;54.50;;;;;;5016049;28;1202;-70
2022/04/14 07:40:26;;;;;;;;;;;19.90;54.30;;;;;;5015895;28;872;-70
2022/04/14 07:42:51;;;;;;;;;;;19.90;54.10;;;;;;4998311;28;859;-69
2022/04/14 07:45:17;;;;;;;;;;;20.00;54.10;;;;;;5015798;28;865;-69
2022/04/14 07:47:43;;;;;;;;;;;20.00;54.00;;;;;;5015773;28;1322;-69
2022/04/14 07:50:11;;;;;;;;;;;20.00;53.90;;;;;;5015572;28;1890;-69
2022/04/14 07:52:44;;;;;;;;;;;20.10;53.80;;;;;;5015529;28;859;-68
2022/04/14 07:55:09;;;;;;;;;;;20.10;53.70;;;;;;5014339;28;914;-67
2022/04/14 07:57:34;;;;;;;;;;;20.20;53.70;;;;;;5015466;28;1215;-70
2022/04/14 08:00:00;;;;;;;;;;;20.20;53.60;;;;;;5015456;28;907;-69
2022/04/14 08:02:25;;;;;;;;;;;20.20;53.50;;;;;;4997867;28;1305;-69
2022/04/14 08:04:51;;;;;;;;;;;20.30;53.50;;;;;;5015425;28;907;-69
2022/04/14 08:07:17;;;;;;;;;;;20.30;53.50;;;;;;5014941;28;1205;-69
2022/04/14 08:09:42;;;;;;;;;;;20.30;53.40;;;;;;5015300;28;904;-67
2022/04/14 08:12:08;;;;;;;;;;;20.40;53.40;;;;;;5015096;28;1969;-68
2022/04/14 08:14:34;;;;;;;;;;;20.40;53.40;;;;;;5015131;28;914;-68
2022/04/14 08:17:04;;;;;;;;;;;20.40;53.90;;;;;;5015031;28;828;-68
2022/04/14 08:19:30;;;;;;;;;;;20.40;53.30;;;;;;5015138;28;832;-68
2022/04/14 08:21:55;;;;;;;;;;;20.40;53.30;;;;;;4997459;28;1300;-67
2022/04/14 08:24:21;;;;;;;;;;;20.40;53.30;;;;;;4997511;28;801;-68
2022/04/14 08:26:46;;;;;;;;;;;20.40;53.30;;;;;;4997058;28;1286;-68
2022/04/14 08:29:12;;;;;;;;;;;20.40;53.40;;;;;;5014725;28;1183;-68
2022/04/14 08:31:40;;;;;;;;;;;20.40;53.40;;;;;;5015025;28;1899;-67
2022/04/14 08:34:06;;;;;;;;;;;20.40;53.30;;;;;;4997261;28;845;-68
2022/04/14 08:36:31;;;;;;;;;;;20.40;53.40;;;;;;4996856;28;1104;-69
2022/04/14 08:38:57;;;;;;;;;;;20.40;53.40;;;;;;5013647;28;1182;-69
2022/04/14 08:41:22;;;;;;;;;;;20.40;53.40;;;;;;5013459;28;827;-69
2022/04/14 08:43:49;;;;;;;;;;;20.40;53.50;;;;;;4997121;28;896;-69
2022/04/14 08:46:14;;;;;;;;;;;20.40;53.50;;;;;;4996913;28;1179;-69
2022/04/14 08:48:40;;;;;;;;;;;20.30;53.50;;;;;;5013466;28;1193;-69
2022/04/14 08:51:06;;;;;;;;;;;20.30;53.50;;;;;;5013212;28;1898;-69
2022/04/14 08:53:31;;;;;;;;;;;20.30;53.60;;;;;;4997053;28;1357;-70
2022/04/14 08:55:57;;;;;;;;;;;20.30;53.60;;;;;;5013034;28;863;-69
2022/04/14 08:58:26;;;;;;;;;;;20.30;53.70;;;;;;5013011;28;1248;-69
2022/04/14 09:00:52;;;;;;;;;;;20.20;53.80;;;;;;5017732;28;1268;-68
2022/04/14 09:03:17;;;;;;;;;;;20.20;53.80;;;;;;4998295;28;1612;-70
2022/04/14 09:05:43;;;;;;;;;;;20.20;53.90;;;;;;5022763;28;1220;-68
2022/04/14 09:08:08;;;;;;;;;;;20.20;54.00;;;;;;4990452;28;1356;-69
2022/04/14 09:10:35;;;;;;;;;;;20.10;54.00;;;;;;5022411;28;1973;-68
2022/04/14 09:13:00;;;;;;;;;;;20.10;54.10;;;;;;4989740;28;1365;-68
2022/04/14 09:15:27;;;;;;;;;;;20.10;54.20;;;;;;5006548;28;1240;-68
2022/04/14 09:17:53;;;;;;;;;;;20.10;54.30;;;;;;5004845;28;1312;-69
2022/04/14 09:20:28;;;;;;;;;;;20.00;54.20;;;;;;5023890;28;1274;-69
2022/04/14 09:23:12;;;;;;;;;;;20.00;54.40;;;;;;5024391;28;1334;-70
2022/04/14 09:25:38;;;;;;;;;;;20.00;54.50;;;;;;5019152;28;1400;-69
2022/04/14 09:28:10;;;;;;;;;;;19.90;54.50;;;;;;5022916;28;1268;-68
2022/04/14 09:30:35;;;;;;;;;;;19.90;54.60;;;;;;5019773;28;1959;-69
2022/04/14 09:33:02;;;;;;;;;;;19.90;54.70;;;;;;5005734;28;1240;-69
2022/04/14 09:35:31;;;;;;;;;;;19.90;54.80;;;;;;5023789;28;1291;-68
2022/04/14 09:38:07;;;;;;;;;;;19.90;54.90;;;;;;5005270;28;1365;-69
2022/04/14 09:40:37;;;;;;;;;;;19.80;54.90;;;;;;5006607;28;1280;-68
2022/04/14 09:43:02;;;;;;;;;;;19.80;54.90;;;;;;5023378;28;1268;-68
2022/04/14 09:45:28;;;;;;;;;;;19.70;54.90;;;;;;5030406;28;1244;-68
2022/04/14 09:47:54;;;;;;;;;;;19.70;54.90;;;;;;5033246;28;1211;-68
2022/04/14 09:50:26;;;;;;;;;;;19.70;55.00;;;;;;5015682;28;1977;-69
2022/04/14 09:52:55;;;;;;;;;;;19.70;55.10;;;;;;5023344;28;1863;-69
2022/04/14 09:55:20;;;;;;;;;;;19.70;55.20;;;;;;5008040;28;1930;-69
2022/04/14 09:57:57;;;;;;;;;;;19.60;55.20;;;;;;5012890;28;1350;-67
2022/04/14 10:00:36;;;;;;;;;;;19.60;55.20;;;;;;5003851;28;1315;-70
2022/04/14 10:03:20;;;;;;;;;;;19.60;55.30;;;;;;4995798;28;828;-69
2022/04/14 10:05:46;;;;;;;;;;;19.60;55.40;;;;;;4995602;28;864;-68
2022/04/14 10:08:13;;;;;;;;;;;19.60;55.40;;;;;;4995236;28;1208;-72
2022/04/14 10:10:48;;;;;;;;;;;19.60;55.50;;;;;;5013066;28;1910;-69
2022/04/14 10:13:14;;;;;;;;;;;19.60;55.60;;;;;;5012355;28;841;-69
2022/04/14 10:15:40;;;;;;;;;;;19.50;55.60;;;;;;5027844;28;864;-70
2022/04/14 10:18:06;;;;;;;;;;;19.50;55.60;;;;;;5012353;28;1299;-69
2022/04/14 10:20:32;;;;;;;;;;;19.50;55.60;;;;;;5011885;28;1102;-68
2022/04/14 10:22:59;;;;;;;;;;;19.50;55.70;;;;;;5012982;28;831;-70
2022/04/14 10:25:25;;;;;;;;;;;19.50;55.80;;;;;;5028205;28;1174;-70
2022/04/14 10:27:54;;;;;;;;;;;19.40;55.80;;;;;;5012707;28;1225;-69
2022/04/14 10:30:20;;;;;;;;;;;19.40;55.80;;;;;;4995858;28;1918;-70
2022/04/14 10:32:46;;;;;;;;;;;19.40;55.90;;;;;;5009784;28;2206;-69
2022/04/14 10:35:11;;;;;;;;;;;19.40;55.90;;;;;;5012522;28;1094;-69
2022/04/14 10:37:38;;;;;;;;;;;19.40;56.00;;;;;;5011953;28;1297;-69
2022/04/14 10:40:04;;;;;;;;;;;19.40;56.00;;;;;;4994041;28;896;-71
2022/04/14 10:42:29;;;;;;;;;;;19.40;56.10;;;;;;4995367;28;975;-70
2022/04/14 10:44:55;;;;;;;;;;;19.40;56.10;;;;;;4995287;28;820;-70
2022/04/14 10:47:36;;;;;;;;;;;19.40;56.10;;;;;;5012549;28;1191;-70
2022/04/14 10:50:02;;;;;;;;;;;19.40;56.20;;;;;;4995590;28;1910;-70
2022/04/14 10:52:27;;;;;;;;;;;19.30;56.20;;;;;;4995429;28;875;-71
2022/04/14 10:54:57;;;;;;;;;;;19.30;56.20;;;;;;4995230;28;799;-71
2022/04/14 10:57:35;;;;;;;;;;;19.30;56.20;;;;;;4983557;28;1419;-71
2022/04/14 11:00:01;;;;;;;;;;;19.30;56.30;;;;;;5001424;28;1288;-71
2022/04/14 11:02:40;;;;;;;;;;;19.30;56.30;;;;;;5003178;28;1295;-69
2022/04/14 11:05:06;;;;;;;;;;;19.30;56.40;;;;;;5003392;28;1439;-68
2022/04/14 11:07:32;;;;;;;;;;;19.30;56.40;;;;;;4995429;28;1236;-70
2022/04/14 11:09:57;;;;;;;;;;;19.30;56.40;;;;;;5012976;28;1968;-71
2022/04/14 11:12:27;;;;;;;;;;;19.30;56.40;;;;;;5012742;28;866;-71
2022/04/14 11:14:56;;;;;;;;;;;19.20;56.40;;;;;;4994988;28;1384;-71
2022/04/14 11:17:53;;;;;;;;;;;19.20;56.50;;;;;;5012410;28;1196;-70
2022/04/14 11:20:46;;;;;;;;;;;19.20;56.50;;;;;;5010125;28;1589;-70
2022/04/14 11:23:12;;;;;;;;;;;19.20;56.60;;;;;;5012577;28;1008;-69
2022/04/14 11:25:49;;;;;;;;;;;19.20;56.60;;;;;;5012350;28;1136;-71
2022/04/14 11:28:22;;;;;;;;;;;19.20;56.60;;;;;;5012811;28;1314;-69
2022/04/14 11:30:48;;;;;;;;;;;19.20;56.60;;;;;;5016080;28;1963;-70
2022/04/14 11:33:14;;;;;;;;;;;19.20;56.70;;;;;;4982609;28;1242;-70
2022/04/14 11:35:48;;;;;;;;;;;19.10;56.70;;;;;;5015822;28;867;-70
2022/04/14 11:38:32;;;;;;;;;;;19.10;56.70;;;;;;4999079;28;1287;-70
2022/04/14 11:40:58;;;;;;;;;;;19.10;56.70;;;;;;5016005;28;884;-70
2022/04/14 11:43:23;;;;;;;;;;;19.10;56.80;;;;;;5015985;28;765;-71
2022/04/14 11:45:48;;;;;;;;;;;19.10;56.80;;;;;;5015607;28;679;-72
2022/04/14 11:48:15;;;;;;;;;;;19.10;56.80;;;;;;5014512;28;1220;-70
2022/04/14 11:50:40;;;;;;;;;;;19.10;56.90;;;;;;5014487;28;1965;-70
2022/04/14 11:53:06;;;;;;;;;;;19.10;56.90;;;;;;5014553;28;1042;-71
2022/04/14 11:55:38;;;;;;;;;;;19.10;56.90;;;;;;5014292;28;738;-69
2022/04/14 11:58:11;;;;;;;;;;;19.10;56.90;;;;;;5015328;28;1192;-70
2022/04/14 12:00:45;;;;;;;;;;;19.10;57.00;;;;;;5015262;28;832;-70
2022/04/14 12:03:11;;;;;;;;;;;19.00;57.50;;;;;;5015454;28;1082;-71
2022/04/14 12:05:36;;;;;;;;;;;19.00;57.00;;;;;;5014038;28;944;-70
2022/04/14 12:08:06;;;;;;;;;;;19.00;57.00;;;;;;5015087;28;1201;-70
2022/04/14 12:10:32;;;;;;;;;;;19.00;57.10;;;;;;5014243;28;1959;-69
2022/04/14 12:13:04;;;;;;;;;;;19.00;57.00;;;;;;5015305;28;875;-71
2022/04/14 12:15:29;;;;;;;;;;;19.00;57.10;;;;;;5009876;28;2197;-71
2022/04/14 12:18:03;;;;;;;;;;;19.00;57.10;;;;;;5013575;28;1334;-71
2022/04/14 12:20:33;;;;;;;;;;;19.00;57.20;;;;;;5015047;28;1148;-70
2022/04/14 12:22:59;;;;;;;;;;;19.00;57.20;;;;;;4996094;28;1447;-70
2022/04/14 12:25:24;;;;;;;;;;;19.00;57.20;;;;;;5009741;28;1486;-71
2022/04/14 12:27:49;;;;;;;;;;;19.00;57.20;;;;;;5008178;28;1476;-70
2022/04/14 12:30:15;;;;;;;;;;;18.90;57.20;;;;;;5008692;28;1898;-72
2022/04/14 12:32:42;;;;;;;;;;;18.90;57.20;;;;;;5025914;28;1207;-70
2022/04/14 12:35:09;;;;;;;;;;;18.90;57.20;;;;;;5023461;28;1224;-70
2022/04/14 12:37:35;;;;;;;;;;;18.90;57.20;;;;;;5006812;28;1280;-70
2022/04/14 12:40:01;;;;;;;;;;;18.90;57.20;;;;;;5006272;28;1312;-71
2022/04/14 12:42:35;;;;;;;;;;;18.90;57.30;;;;;;5025261;28;1247;-72
2022/04/14 12:45:07;;;;;;;;;;;18.90;57.30;;;;;;5024742;28;1722;-71
2022/04/14 12:47:32;;;;;;;;;;;18.90;57.30;;;;;;5020502;28;1351;-72
2022/04/14 12:49:58;;;;;;;;;;;18.90;57.30;;;;;;5006741;28;1902;-70
2022/04/14 12:52:24;;;;;;;;;;;18.90;57.30;;;;;;5024745;28;1291;-70
2022/04/14 12:54:50;;;;;;;;;;;18.90;57.40;;;;;;5005446;28;1188;-70
2022/04/14 12:57:35;;;;;;;;;;;18.90;57.40;;;;;;5028839;28;1302;-70
2022/04/14 13:00:02;;;;;;;;;;;18.80;57.40;;;;;;5003067;28;1237;-70
2022/04/14 13:02:28;;;;;;;;;;;18.80;57.40;;;;;;5003485;28;1253;-73
2022/04/14 13:05:06;;;;;;;;;;;18.80;57.40;;;;;;5008139;28;1180;-70
2022/04/14 13:07:43;;;;;;;;;;;18.90;57.40;;;;;;5021293;28;1300;-73
2022/04/14 13:10:08;;;;;;;;;;;18.80;57.50;;;;;;5002527;28;1902;-71
2022/04/14 13:12:43;;;;;;;;;;;18.80;57.50;;;;;;5023734;28;1224;-72
2022/04/14 13:15:09;;;;;;;;;;;18.80;57.50;;;;;;4999748;28;1225;-70
2022/04/14 13:17:38;;;;;;;;;;;18.80;57.50;;;;;;5024301;28;1366;-70
2022/04/14 13:20:10;;;;;;;;;;;18.80;57.50;;;;;;5024386;28;1290;-70
2022/04/14 13:22:35;;;;;;;;;;;18.80;57.60;;;;;;5023857;28;1292;-70
2022/04/14 13:25:01;;;;;;;;;;;18.80;57.60;;;;;;5022445;28;1220;-69
2022/04/14 13:27:26;;;;;;;;;;;18.80;57.60;;;;;;5031829;22;3902;-64
2022/04/14 13:29:52;;;;;;;;;;;18.80;57.60;;;;;;5021273;28;1066;-68
2022/04/14 13:32:17;;;;;;;;;;;18.80;57.60;;;;;;5031182;28;1910;-67
2022/04/14 13:34:42;;;;;;;;;;;18.80;57.60;;;;;;5012106;28;1055;-67
2022/04/14 13:37:08;;;;;;;;;;;18.70;57.60;;;;;;5024739;28;1235;-69
2022/04/14 13:39:33;;;;;;;;;;;18.70;57.60;;;;;;5033153;28;780;-67
2022/04/14 13:41:59;;;;;;;;;;;18.80;58.20;;;;;;4998893;28;1051;-67
2022/04/14 13:44:25;;;;;;;;;;;18.80;57.60;;;;;;5032856;28;847;-68
2022/04/14 13:46:50;;;;;;;;;;;18.80;57.60;;;;;;5032808;28;689;-67
2022/04/14 13:49:16;;;;;;;;;;;18.80;57.60;;;;;;5032589;28;1260;-67
2022/04/14 13:51:41;;;;;;;;;;;18.80;57.50;;;;;;5033064;28;1891;-68
2022/04/14 13:54:08;;;;;;;;;;;18.80;57.50;;;;;;5032802;28;882;-68
2022/04/14 13:56:34;;;;;;;;;;;18.90;57.40;;;;;;5032706;28;902;-67
2022/04/14 13:58:59;;;;;;;;;;;18.90;57.40;;;;;;5032765;28;1206;-68
2022/04/14 14:01:25;;;;;;;;;;;18.90;57.30;;;;;;5032552;28;883;-67
2022/04/14 14:03:52;;;;;;;;;;;18.90;57.30;;;;;;5032642;28;974;-68
2022/04/14 14:06:17;;;;;;;;;;;18.90;57.20;;;;;;5014852;28;1025;-67
2022/04/14 14:08:42;;;;;;;;;;;18.90;57.20;;;;;;5014878;28;1371;-67
2022/04/14 14:11:08;;;;;;;;;;;19.00;57.20;;;;;;5015434;28;1930;-68
2022/04/14 14:13:34;;;;;;;;;;;19.00;57.20;;;;;;5032891;28;705;-67
2022/04/14 14:15:59;;;;;;;;;;;19.00;57.10;;;;;;5032207;28;840;-68
2022/04/14 14:18:25;;;;;;;;;;;19.00;57.10;;;;;;5032504;28;1292;-67
2022/04/14 14:20:50;;;;;;;;;;;19.00;57.10;;;;;;5032648;28;879;-69
2022/04/14 14:23:16;;;;;;;;;;;19.00;57.00;;;;;;5015058;28;874;-68
2022/04/14 14:25:41;;;;;;;;;;;19.00;57.00;;;;;;5032314;28;1100;-67
2022/04/14 14:28:07;;;;;;;;;;;19.00;57.00;;;;;;5032044;28;1277;-68
2022/04/14 14:30:32;;;;;;;;;;;19.10;57.00;;;;;;5032141;28;1914;-68
2022/04/14 14:32:57;;;;;;;;;;;19.10;56.90;;;;;;5032328;28;705;-67
2022/04/14 14:35:23;;;;;;;;;;;19.10;56.90;;;;;;5032357;28;776;-68